CES5850 ZUUU-ZPPP
Flight info
| Callsign | CES5850 |
|---|---|
| Flight time | 0h 58m |
| Altitude | 30100 |
| Route | LUVE9W/02L LUVEN G212 SGM |
| Aircraft | B77W/H-SDE1E2E3FGHIJ2J3J4J5M1RWXY/LB1D1 |
Departure
| Time | 2026-04-29 14:05 |
|---|---|
| Airport | Chengdu Shuangliu International Airport (ZUUU) |
Arrival
| Time | 2026-04-29 15:03 |
|---|---|
| Airport | Kunming Changshui International Airport (ZPPP) |
| Time | Latitude | Longitude | Altitude | Speed | Heading |
|---|---|---|---|---|---|
| 2026-04-29 13:37 | 30.56924 | 103.94983 | 1643 ft | 0 kts | 21° |
| 2026-04-29 13:52 | 30.56923 | 103.94983 | 1643 ft | 0 kts | 21° |
| 2026-04-29 13:53 | 30.56909 | 103.94976 | 1643 ft | 2 kts | 21° |
| 2026-04-29 13:53 | 30.56895 | 103.94970 | 1643 ft | 2 kts | 21° |
| 2026-04-29 13:53 | 30.56881 | 103.94964 | 1643 ft | 2 kts | 5° |
| 2026-04-29 13:53 | 30.56866 | 103.94966 | 1643 ft | 2 kts | 330° |
| 2026-04-29 13:54 | 30.56855 | 103.94978 | 1643 ft | 2 kts | 301° |
| 2026-04-29 13:54 | 30.56849 | 103.94994 | 1643 ft | 2 kts | 287° |
| 2026-04-29 13:54 | 30.56845 | 103.95010 | 1643 ft | 2 kts | 290° |
| 2026-04-29 13:54 | 30.56843 | 103.95016 | 1643 ft | 0 kts | 292° |
| 2026-04-29 13:58 | 30.56847 | 103.95004 | 1643 ft | 3 kts | 291° |
| 2026-04-29 13:58 | 30.56858 | 103.94970 | 1643 ft | 6 kts | 291° |
| 2026-04-29 13:59 | 30.56878 | 103.94913 | 1643 ft | 8 kts | 292° |
| 2026-04-29 13:59 | 30.56904 | 103.94839 | 1643 ft | 11 kts | 292° |
| 2026-04-29 13:59 | 30.56936 | 103.94747 | 1643 ft | 13 kts | 290° |
| 2026-04-29 13:59 | 30.56913 | 103.94682 | 1643 ft | 9 kts | 201° |
| 2026-04-29 14:00 | 30.56855 | 103.94661 | 1643 ft | 8 kts | 202° |
| 2026-04-29 14:00 | 30.56802 | 103.94637 | 1643 ft | 8 kts | 202° |
| 2026-04-29 14:00 | 30.56739 | 103.94607 | 1642 ft | 10 kts | 202° |
| 2026-04-29 14:00 | 30.56663 | 103.94571 | 1643 ft | 12 kts | 202° |
| 2026-04-29 14:01 | 30.56579 | 103.94532 | 1642 ft | 10 kts | 202° |
| 2026-04-29 14:01 | 30.56511 | 103.94501 | 1642 ft | 10 kts | 202° |
| 2026-04-29 14:01 | 30.56434 | 103.94465 | 1642 ft | 12 kts | 202° |
| 2026-04-29 14:01 | 30.56345 | 103.94423 | 1642 ft | 13 kts | 202° |
| 2026-04-29 14:02 | 30.56285 | 103.94395 | 1642 ft | 9 kts | 202° |
| 2026-04-29 14:02 | 30.56244 | 103.94358 | 1642 ft | 6 kts | 265° |
| 2026-04-29 14:02 | 30.56253 | 103.94302 | 1642 ft | 6 kts | 290° |
| 2026-04-29 14:02 | 30.56272 | 103.94245 | 1642 ft | 8 kts | 291° |
| 2026-04-29 14:03 | 30.56298 | 103.94172 | 1642 ft | 10 kts | 292° |
| 2026-04-29 14:03 | 30.56328 | 103.94084 | 1642 ft | 10 kts | 292° |
| 2026-04-29 14:03 | 30.56359 | 103.94031 | 1642 ft | 7 kts | 332° |
| 2026-04-29 14:03 | 30.56409 | 103.94030 | 1642 ft | 7 kts | 14° |
| 2026-04-29 14:04 | 30.56464 | 103.94054 | 1642 ft | 15 kts | 21° |
| 2026-04-29 14:04 | 30.56758 | 103.94191 | 1643 ft | 80 kts | 22° |
| 2026-04-29 14:04 | 30.57486 | 103.94530 | 1643 ft | 142 kts | 22° |
| 2026-04-29 14:04 | 30.58551 | 103.95024 | 1815 ft | 177 kts | 24° |
| 2026-04-29 14:05 | 30.59676 | 103.95548 | 2441 ft | 181 kts | 24° |
| 2026-04-29 14:05 | 30.60882 | 103.96110 | 3023 ft | 191 kts | 24° |
| 2026-04-29 14:05 | 30.62167 | 103.96712 | 3363 ft | 207 kts | 23° |
| 2026-04-29 14:05 | 30.63551 | 103.97357 | 3693 ft | 225 kts | 22° |
| 2026-04-29 14:06 | 30.65057 | 103.98058 | 4101 ft | 242 kts | 22° |
| 2026-04-29 14:06 | 30.66665 | 103.98806 | 4543 ft | 257 kts | 22° |
| 2026-04-29 14:06 | 30.68360 | 103.99640 | 5079 ft | 268 kts | 30° |
| 2026-04-29 14:06 | 30.69709 | 104.01068 | 5795 ft | 271 kts | 55° |
| 2026-04-29 14:07 | 30.70644 | 104.02971 | 6470 ft | 276 kts | 61° |
| 2026-04-29 14:07 | 30.71542 | 104.04984 | 7160 ft | 280 kts | 62° |
| 2026-04-29 14:07 | 30.72424 | 104.06974 | 7824 ft | 283 kts | 62° |
| 2026-04-29 14:07 | 30.73332 | 104.09026 | 8480 ft | 288 kts | 62° |
| 2026-04-29 14:08 | 30.74250 | 104.11103 | 9218 ft | 289 kts | 62° |
| 2026-04-29 14:08 | 30.75167 | 104.13178 | 9840 ft | 293 kts | 62° |
| 2026-04-29 14:08 | 30.75994 | 104.15360 | 10400 ft | 299 kts | 75° |
| 2026-04-29 14:08 | 30.76076 | 104.17814 | 10615 ft | 318 kts | 102° |
| 2026-04-29 14:09 | 30.75098 | 104.20203 | 10794 ft | 336 kts | 131° |
| 2026-04-29 14:09 | 30.73185 | 104.21863 | 10981 ft | 353 kts | 159° |
| 2026-04-29 14:09 | 30.70768 | 104.22317 | 11482 ft | 357 kts | 186° |
| 2026-04-29 14:09 | 30.68358 | 104.21625 | 12189 ft | 358 kts | 200° |
| 2026-04-29 14:10 | 30.66036 | 104.20647 | 12973 ft | 359 kts | 201° |
| 2026-04-29 14:10 | 30.63679 | 104.19634 | 13703 ft | 364 kts | 201° |
| 2026-04-29 14:10 | 30.61295 | 104.18609 | 14402 ft | 371 kts | 202° |
| 2026-04-29 14:10 | 30.58854 | 104.17559 | 15152 ft | 378 kts | 202° |
| 2026-04-29 14:11 | 30.56369 | 104.16492 | 15932 ft | 385 kts | 202° |
| 2026-04-29 14:11 | 30.53849 | 104.15409 | 16684 ft | 392 kts | 202° |
| 2026-04-29 14:11 | 30.51282 | 104.14308 | 17420 ft | 398 kts | 202° |
| 2026-04-29 14:11 | 30.48659 | 104.13184 | 18191 ft | 403 kts | 203° |
| 2026-04-29 14:12 | 30.46034 | 104.12055 | 19025 ft | 405 kts | 205° |
| 2026-04-29 14:12 | 30.43416 | 104.10837 | 19894 ft | 406 kts | 206° |
| 2026-04-29 14:12 | 30.40800 | 104.09606 | 20662 ft | 409 kts | 206° |
| 2026-04-29 14:12 | 30.38162 | 104.08368 | 21422 ft | 412 kts | 207° |
| 2026-04-29 14:13 | 30.35481 | 104.07110 | 22140 ft | 415 kts | 208° |
| 2026-04-29 14:13 | 30.32782 | 104.05843 | 22826 ft | 419 kts | 208° |
| 2026-04-29 14:13 | 30.30098 | 104.04587 | 23485 ft | 422 kts | 208° |
| 2026-04-29 14:13 | 30.27267 | 104.03552 | 24068 ft | 435 kts | 199° |
| 2026-04-29 14:14 | 30.24187 | 104.03068 | 24617 ft | 449 kts | 188° |
| 2026-04-29 14:14 | 30.21063 | 104.03094 | 25219 ft | 457 kts | 184° |
| 2026-04-29 14:14 | 30.17844 | 104.03218 | 25862 ft | 461 kts | 184° |
| 2026-04-29 14:14 | 30.14631 | 104.03345 | 26465 ft | 465 kts | 185° |
| 2026-04-29 14:15 | 30.11410 | 104.03472 | 27013 ft | 469 kts | 185° |
| 2026-04-29 14:15 | 30.08151 | 104.03601 | 27599 ft | 474 kts | 185° |
| 2026-04-29 14:15 | 30.04823 | 104.03732 | 28116 ft | 480 kts | 185° |
| 2026-04-29 14:15 | 30.01462 | 104.03865 | 28670 ft | 484 kts | 185° |
| 2026-04-29 14:16 | 29.98109 | 104.03999 | 29268 ft | 487 kts | 185° |
| 2026-04-29 14:16 | 29.94716 | 104.04134 | 29877 ft | 490 kts | 185° |
| 2026-04-29 14:16 | 29.91292 | 104.04270 | 30228 ft | 493 kts | 185° |
| 2026-04-29 14:16 | 29.87849 | 104.04409 | 30234 ft | 490 kts | 185° |
| 2026-04-29 14:17 | 29.81057 | 104.04684 | 30232 ft | 487 kts | 185° |
| 2026-04-29 14:17 | 29.74294 | 104.04854 | 30237 ft | 482 kts | 189° |
| 2026-04-29 14:18 | 29.67558 | 104.04562 | 30231 ft | 480 kts | 189° |
| 2026-04-29 14:18 | 29.60892 | 104.04275 | 30232 ft | 480 kts | 189° |
| 2026-04-29 14:19 | 29.54200 | 104.03987 | 30232 ft | 480 kts | 189° |
| 2026-04-29 14:19 | 29.47535 | 104.03702 | 30231 ft | 477 kts | 189° |
| 2026-04-29 14:20 | 29.40899 | 104.03416 | 30234 ft | 477 kts | 189° |
| 2026-04-29 14:20 | 29.34246 | 104.03307 | 30232 ft | 478 kts | 186° |
| 2026-04-29 14:21 | 29.27638 | 104.03442 | 30242 ft | 476 kts | 186° |
| 2026-04-29 14:21 | 29.21000 | 104.03559 | 30237 ft | 477 kts | 186° |
| 2026-04-29 14:22 | 29.14350 | 104.03666 | 30237 ft | 476 kts | 186° |
| 2026-04-29 14:22 | 29.07728 | 104.03765 | 30246 ft | 475 kts | 186° |
| 2026-04-29 14:23 | 29.01152 | 104.03861 | 30235 ft | 474 kts | 186° |
| 2026-04-29 14:23 | 28.94575 | 104.03956 | 30247 ft | 472 kts | 186° |
| 2026-04-29 14:24 | 28.88020 | 104.04049 | 30261 ft | 470 kts | 186° |
| 2026-04-29 14:24 | 28.81418 | 104.04140 | 30267 ft | 471 kts | 186° |
| 2026-04-29 14:25 | 28.74834 | 104.04232 | 30285 ft | 472 kts | 186° |
| 2026-04-29 14:25 | 28.68315 | 104.04324 | 30291 ft | 470 kts | 186° |
| 2026-04-29 14:26 | 28.61757 | 104.04320 | 30286 ft | 463 kts | 192° |
| 2026-04-29 14:26 | 28.55632 | 104.02640 | 30295 ft | 456 kts | 210° |
| 2026-04-29 14:27 | 28.50176 | 103.99174 | 30295 ft | 439 kts | 219° |
| 2026-04-29 14:28 | 28.42476 | 103.93771 | 30312 ft | 435 kts | 219° |
| 2026-04-29 14:28 | 28.37295 | 103.90126 | 30334 ft | 436 kts | 219° |
| 2026-04-29 14:29 | 28.32144 | 103.86505 | 30316 ft | 435 kts | 219° |
| 2026-04-29 14:29 | 28.27024 | 103.82907 | 30331 ft | 435 kts | 218° |
| 2026-04-29 14:30 | 28.21864 | 103.79285 | 30326 ft | 434 kts | 218° |
| 2026-04-29 14:30 | 28.16741 | 103.75693 | 30342 ft | 434 kts | 218° |
| 2026-04-29 14:31 | 28.11607 | 103.72096 | 30351 ft | 434 kts | 218° |
| 2026-04-29 14:31 | 28.06450 | 103.68487 | 30355 ft | 436 kts | 218° |
| 2026-04-29 14:32 | 28.01294 | 103.64883 | 30353 ft | 436 kts | 218° |
| 2026-04-29 14:32 | 27.96149 | 103.61292 | 30358 ft | 434 kts | 218° |
| 2026-04-29 14:33 | 27.90997 | 103.57699 | 30358 ft | 435 kts | 218° |
| 2026-04-29 14:33 | 27.85837 | 103.54105 | 30382 ft | 434 kts | 218° |
| 2026-04-29 14:34 | 27.80693 | 103.50526 | 30389 ft | 434 kts | 217° |
| 2026-04-29 14:34 | 27.75564 | 103.46960 | 30389 ft | 435 kts | 217° |
| 2026-04-29 14:35 | 27.70403 | 103.43377 | 30398 ft | 436 kts | 217° |
| 2026-04-29 14:35 | 27.65231 | 103.39792 | 30398 ft | 434 kts | 218° |
| 2026-04-29 14:36 | 27.60099 | 103.36237 | 30402 ft | 434 kts | 217° |
| 2026-04-29 14:36 | 27.54908 | 103.32644 | 30415 ft | 438 kts | 216° |
| 2026-04-29 14:37 | 27.49728 | 103.29066 | 30413 ft | 433 kts | 216° |
| 2026-04-29 14:37 | 27.44546 | 103.25629 | 30412 ft | 441 kts | 210° |
| 2026-04-29 14:38 | 27.38821 | 103.23004 | 30411 ft | 443 kts | 206° |
| 2026-04-29 14:38 | 27.33075 | 103.20466 | 30413 ft | 443 kts | 206° |
| 2026-04-29 14:39 | 27.27348 | 103.17937 | 30412 ft | 442 kts | 206° |
| 2026-04-29 14:39 | 27.21637 | 103.15414 | 30402 ft | 442 kts | 207° |
| 2026-04-29 14:40 | 27.15916 | 103.12886 | 30422 ft | 443 kts | 206° |
| 2026-04-29 14:40 | 27.10178 | 103.10352 | 30439 ft | 442 kts | 206° |
| 2026-04-29 14:41 | 27.04424 | 103.07814 | 30456 ft | 443 kts | 206° |
| 2026-04-29 14:41 | 26.98724 | 103.05304 | 30473 ft | 442 kts | 206° |
| 2026-04-29 14:42 | 26.92972 | 103.02773 | 30447 ft | 442 kts | 206° |
| 2026-04-29 14:42 | 26.87248 | 103.00256 | 30418 ft | 442 kts | 206° |
| 2026-04-29 14:43 | 26.81522 | 102.97742 | 30404 ft | 440 kts | 206° |
| 2026-04-29 14:43 | 26.75793 | 102.95229 | 30384 ft | 442 kts | 206° |
| 2026-04-29 14:44 | 26.70111 | 102.92739 | 30379 ft | 438 kts | 206° |
| 2026-04-29 14:44 | 26.67267 | 102.91495 | 30268 ft | 435 kts | 205° |
| 2026-04-29 14:44 | 26.64456 | 102.90264 | 30031 ft | 435 kts | 205° |
| 2026-04-29 14:44 | 26.61655 | 102.89039 | 29806 ft | 434 kts | 205° |
| 2026-04-29 14:45 | 26.58837 | 102.87807 | 29653 ft | 432 kts | 205° |
| 2026-04-29 14:45 | 26.56051 | 102.86590 | 29510 ft | 429 kts | 205° |
| 2026-04-29 14:45 | 26.53270 | 102.85376 | 29374 ft | 427 kts | 205° |
| 2026-04-29 14:45 | 26.50515 | 102.84174 | 29220 ft | 424 kts | 205° |
| 2026-04-29 14:46 | 26.47788 | 102.82985 | 28872 ft | 416 kts | 205° |
| 2026-04-29 14:46 | 26.45115 | 102.81820 | 28398 ft | 411 kts | 205° |
| 2026-04-29 14:46 | 26.42470 | 102.80668 | 27900 ft | 407 kts | 204° |
| 2026-04-29 14:46 | 26.39769 | 102.79763 | 27682 ft | 400 kts | 194° |
| 2026-04-29 14:47 | 26.36961 | 102.79373 | 27672 ft | 418 kts | 186° |
| 2026-04-29 14:47 | 26.33968 | 102.79511 | 27669 ft | 432 kts | 176° |
| 2026-04-29 14:47 | 26.31021 | 102.80219 | 27620 ft | 436 kts | 167° |
| 2026-04-29 14:47 | 26.29092 | 102.80887 | 27441 ft | 439 kts | 166° |
| 2026-04-29 14:48 | 26.25211 | 102.82282 | 26780 ft | 440 kts | 165° |
| 2026-04-29 14:48 | 26.22315 | 102.83325 | 26249 ft | 436 kts | 165° |
| 2026-04-29 14:48 | 26.19453 | 102.84357 | 25721 ft | 432 kts | 165° |
| 2026-04-29 14:48 | 26.16600 | 102.85384 | 25177 ft | 428 kts | 165° |
| 2026-04-29 14:49 | 26.13773 | 102.86402 | 24661 ft | 424 kts | 165° |
| 2026-04-29 14:49 | 26.10980 | 102.87407 | 24135 ft | 420 kts | 164° |
| 2026-04-29 14:49 | 26.08205 | 102.88406 | 23620 ft | 416 kts | 165° |
| 2026-04-29 14:49 | 26.05474 | 102.89387 | 23094 ft | 413 kts | 164° |
| 2026-04-29 14:50 | 26.02763 | 102.90360 | 22578 ft | 409 kts | 164° |
| 2026-04-29 14:50 | 26.00041 | 102.91338 | 22073 ft | 407 kts | 164° |
| 2026-04-29 14:50 | 25.97378 | 102.92293 | 21561 ft | 405 kts | 164° |
| 2026-04-29 14:50 | 25.94691 | 102.93256 | 21029 ft | 403 kts | 164° |
| 2026-04-29 14:51 | 25.92032 | 102.94209 | 20405 ft | 405 kts | 164° |
| 2026-04-29 14:51 | 25.89335 | 102.95175 | 19740 ft | 407 kts | 165° |
| 2026-04-29 14:51 | 25.86648 | 102.96137 | 19152 ft | 406 kts | 165° |
| 2026-04-29 14:51 | 25.83953 | 102.97102 | 18597 ft | 405 kts | 165° |
| 2026-04-29 14:52 | 25.81279 | 102.98058 | 18051 ft | 403 kts | 165° |
| 2026-04-29 14:52 | 25.78584 | 102.99022 | 17502 ft | 401 kts | 166° |
| 2026-04-29 14:52 | 25.75930 | 102.99971 | 16961 ft | 400 kts | 165° |
| 2026-04-29 14:52 | 25.73310 | 103.00906 | 16413 ft | 398 kts | 165° |
| 2026-04-29 14:53 | 25.70688 | 103.01842 | 15863 ft | 397 kts | 165° |
| 2026-04-29 14:53 | 25.68064 | 103.02779 | 15309 ft | 395 kts | 165° |
| 2026-04-29 14:53 | 25.65466 | 103.03706 | 14872 ft | 389 kts | 165° |
| 2026-04-29 14:53 | 25.62940 | 103.04608 | 14758 ft | 373 kts | 165° |
| 2026-04-29 14:54 | 25.60494 | 103.05482 | 14647 ft | 359 kts | 165° |
| 2026-04-29 14:54 | 25.58152 | 103.06317 | 14514 ft | 346 kts | 165° |
| 2026-04-29 14:54 | 25.55923 | 103.07111 | 14373 ft | 335 kts | 165° |
| 2026-04-29 14:54 | 25.53737 | 103.07890 | 14229 ft | 324 kts | 165° |
| 2026-04-29 14:55 | 25.51617 | 103.08643 | 14089 ft | 314 kts | 165° |
| 2026-04-29 14:55 | 25.49608 | 103.09547 | 13931 ft | 308 kts | 149° |
| 2026-04-29 14:55 | 25.48003 | 103.11105 | 13684 ft | 303 kts | 134° |
| 2026-04-29 14:55 | 25.46654 | 103.12844 | 13298 ft | 295 kts | 131° |
| 2026-04-29 14:56 | 25.45396 | 103.14575 | 12903 ft | 286 kts | 130° |
| 2026-04-29 14:56 | 25.44081 | 103.16177 | 12539 ft | 274 kts | 147° |
| 2026-04-29 14:56 | 25.42417 | 103.17008 | 12240 ft | 262 kts | 172° |
| 2026-04-29 14:56 | 25.40616 | 103.17126 | 11900 ft | 254 kts | 193° |
| 2026-04-29 14:57 | 25.38979 | 103.16471 | 11548 ft | 247 kts | 211° |
| 2026-04-29 14:57 | 25.37538 | 103.15459 | 11214 ft | 244 kts | 217° |
| 2026-04-29 14:57 | 25.36206 | 103.14356 | 11051 ft | 232 kts | 219° |
| 2026-04-29 14:57 | 25.34978 | 103.13297 | 10968 ft | 216 kts | 220° |
| 2026-04-29 14:58 | 25.33822 | 103.12292 | 10895 ft | 207 kts | 219° |
| 2026-04-29 14:58 | 25.32707 | 103.11317 | 10887 ft | 206 kts | 219° |
| 2026-04-29 14:58 | 25.31574 | 103.10329 | 10884 ft | 206 kts | 220° |
| 2026-04-29 14:58 | 25.30450 | 103.09346 | 10881 ft | 205 kts | 219° |
| 2026-04-29 14:59 | 25.29336 | 103.08373 | 10780 ft | 208 kts | 219° |
| 2026-04-29 14:59 | 25.28211 | 103.07391 | 10520 ft | 203 kts | 219° |
| 2026-04-29 14:59 | 25.27110 | 103.06428 | 10269 ft | 198 kts | 219° |
| 2026-04-29 14:59 | 25.26049 | 103.05501 | 10029 ft | 193 kts | 219° |
| 2026-04-29 15:00 | 25.25003 | 103.04586 | 9792 ft | 192 kts | 218° |
| 2026-04-29 15:00 | 25.23945 | 103.03664 | 9548 ft | 192 kts | 218° |
| 2026-04-29 15:00 | 25.22905 | 103.02755 | 9303 ft | 191 kts | 218° |
| 2026-04-29 15:00 | 25.21871 | 103.01852 | 9065 ft | 190 kts | 218° |
| 2026-04-29 15:01 | 25.20837 | 103.00949 | 8816 ft | 183 kts | 218° |
| 2026-04-29 15:01 | 25.19885 | 103.00118 | 8593 ft | 169 kts | 217° |
| 2026-04-29 15:01 | 25.18971 | 102.99320 | 8384 ft | 166 kts | 217° |
| 2026-04-29 15:01 | 25.18062 | 102.98530 | 8161 ft | 165 kts | 217° |
| 2026-04-29 15:02 | 25.17156 | 102.97739 | 7945 ft | 165 kts | 217° |
| 2026-04-29 15:02 | 25.16262 | 102.96962 | 7722 ft | 164 kts | 219° |
| 2026-04-29 15:02 | 25.15370 | 102.96172 | 7500 ft | 164 kts | 218° |
| 2026-04-29 15:02 | 25.14469 | 102.95391 | 7323 ft | 164 kts | 217° |
| 2026-04-29 15:03 | 25.13583 | 102.94621 | 7107 ft | 162 kts | 218° |
| 2026-04-29 15:03 | 25.12690 | 102.93842 | 6937 ft | 161 kts | 218° |
| 2026-04-29 15:03 | 25.11858 | 102.93122 | 6917 ft | 132 kts | 218° |
| 2026-04-29 15:03 | 25.11331 | 102.92664 | 6917 ft | 48 kts | 218° |
| 2026-04-29 15:04 | 25.11151 | 102.92504 | 6917 ft | 29 kts | 218° |
| 2026-04-29 15:04 | 25.10981 | 102.92406 | 6917 ft | 26 kts | 199° |
| 2026-04-29 15:04 | 25.10863 | 102.92377 | 6917 ft | 12 kts | 188° |
| 2026-04-29 15:04 | 25.10801 | 102.92407 | 6917 ft | 9 kts | 103° |
| 2026-04-29 15:05 | 25.10844 | 102.92478 | 6917 ft | 13 kts | 40° |
| 2026-04-29 15:05 | 25.10898 | 102.92526 | 6917 ft | 15 kts | 37° |
| 2026-04-29 15:05 | 25.11028 | 102.92638 | 6917 ft | 19 kts | 38° |
| 2026-04-29 15:05 | 25.11141 | 102.92738 | 6917 ft | 22 kts | 38° |
| 2026-04-29 15:06 | 25.11269 | 102.92848 | 6917 ft | 24 kts | 38° |
| 2026-04-29 15:06 | 25.11382 | 102.92947 | 6917 ft | 10 kts | 38° |
| 2026-04-29 15:06 | 25.11435 | 102.92996 | 6917 ft | 9 kts | 50° |
| 2026-04-29 15:06 | 25.11434 | 102.93048 | 6917 ft | 7 kts | 123° |
| 2026-04-29 15:07 | 25.11406 | 102.93089 | 6917 ft | 6 kts | 128° |
| 2026-04-29 15:07 | 25.11376 | 102.93130 | 6917 ft | 7 kts | 128° |
| 2026-04-29 15:07 | 25.11338 | 102.93184 | 6917 ft | 10 kts | 128° |
| 2026-04-29 15:07 | 25.11289 | 102.93250 | 6917 ft | 12 kts | 128° |
| 2026-04-29 15:08 | 25.11272 | 102.93301 | 6917 ft | 6 kts | 79° |
| 2026-04-29 15:08 | 25.11304 | 102.93336 | 6917 ft | 7 kts | 38° |
| 2026-04-29 15:08 | 25.11328 | 102.93357 | 6917 ft | 2 kts | 39° |
| 2026-04-29 15:08 | 25.11330 | 102.93359 | 6917 ft | 0 kts | 39° |